首页
METAR-TAF:

METAR-TAF

机场 :

Odiham, 英格兰

纬度: 51-14N, 经度: 000-57W, 海拔: 123米

当前天气观测

该预报发布于1小时和20分钟前的07:50 UTC
风速5节,风向西南
温度 1°C
湿度 93%
气压 1025 hPa
能见度10公里或以上

METAR: EGVO 180750Z AUTO 23005KT 9999 NCD 01/00 Q1025

时间: 09:10 (09:10 UTC)

预报

该预报发布于16小时和54分钟前的16:16 UTC
预报有效从17日的 18点(UTC)到 18日的 06点(UTC)
风速10节,风向西
能见度10公里或以上
少量云层高于2000英尺
几率 30% :
短暂存在
从 17日的 18点(UTC)到 17日的 24点(UTC)
散云层高于1200英尺

TAF: EGVO 171616Z 1718/1806 26010KT 9999 FEW020 PROB30 TEMPO 1718/1724 SCT012

超过4000个机场的气象观测和天气预报(METAR&TAF报告)。

可查询的气象台以黄色和红色小点在地图上表示。

将鼠标移到小点上方,可查看气象台名称。

然后点击查看天气观测和预报。

如需切换地图:点击带黑十字的绿色按钮放大地图;点击带横线的绿色按钮缩小地图;或者点击绿色箭头查看邻近地区的地图。


METAR-TAF: